Terminal Aerodrome Forecast
Issued by NWS Cleveland, OH

Home | Current Version | Previous Version | Text Only | Print | Product List | Glossary On
Versions: 1 2 3 4 5 6 7 8 9 10 11 12 13 14 15 16 17 18 19
000
FTUS41 KCLE 261133
TAFCAK
TAF
KCAK 261133Z 2612/2712 18003KT P6SM BKN010
      TEMPO 2612/2614 SCT010
     FM261400 30006KT P6SM SKC
     FM261600 30006KT P6SM SCT045
     FM270600 VRB03KT P6SM SCT120=

USA.gov is the U.S. government's official web portal to all federal, state and local government web resources and services.